sensor_id;sensor_type;location;lat;lon;timestamp;temperature;humidity
69031;DHT22;56083;48.774;8.942;2023-06-22T00:01:03;19.00;99.90
69031;DHT22;56083;48.774;8.942;2023-06-22T00:03:29;19.00;99.90
69031;DHT22;56083;48.774;8.942;2023-06-22T00:05:55;18.90;99.90
69031;DHT22;56083;48.774;8.942;2023-06-22T00:08:21;18.90;99.90
69031;DHT22;56083;48.774;8.942;2023-06-22T00:10:47;18.90;99.90
69031;DHT22;56083;48.774;8.942;2023-06-22T00:13:14;18.80;99.90
69031;DHT22;56083;48.774;8.942;2023-06-22T00:15:40;18.80;99.90
69031;DHT22;56083;48.774;8.942;2023-06-22T00:18:07;18.70;99.90
69031;DHT22;56083;48.774;8.942;2023-06-22T00:20:34;18.80;99.90
69031;DHT22;56083;48.774;8.942;2023-06-22T00:23:03;18.70;99.90
69031;DHT22;56083;48.774;8.942;2023-06-22T00:25:36;18.60;99.90
69031;DHT22;56083;48.774;8.942;2023-06-22T00:28:03;18.60;99.90
69031;DHT22;56083;48.774;8.942;2023-06-22T00:30:30;18.60;99.90
69031;DHT22;56083;48.774;8.942;2023-06-22T00:32:56;18.60;99.90
69031;DHT22;56083;48.774;8.942;2023-06-22T00:35:22;18.60;99.90
69031;DHT22;56083;48.774;8.942;2023-06-22T00:37:47;18.60;99.90
69031;DHT22;56083;48.774;8.942;2023-06-22T00:40:13;18.50;99.90
69031;DHT22;56083;48.774;8.942;2023-06-22T00:42:40;18.50;99.90
69031;DHT22;56083;48.774;8.942;2023-06-22T00:45:07;18.50;99.90
69031;DHT22;56083;48.774;8.942;2023-06-22T00:47:34;18.50;99.90
69031;DHT22;56083;48.774;8.942;2023-06-22T00:50:01;18.50;99.90
69031;DHT22;56083;48.774;8.942;2023-06-22T00:52:28;18.50;99.90
69031;DHT22;56083;48.774;8.942;2023-06-22T00:54:56;18.60;99.90
69031;DHT22;56083;48.774;8.942;2023-06-22T00:57:22;18.60;99.90
69031;DHT22;56083;48.774;8.942;2023-06-22T00:59:54;18.70;99.90
69031;DHT22;56083;48.774;8.942;2023-06-22T01:02:20;18.70;99.90
69031;DHT22;56083;48.774;8.942;2023-06-22T01:04:46;18.80;99.90
69031;DHT22;56083;48.774;8.942;2023-06-22T01:07:38;18.80;99.90
69031;DHT22;56083;48.774;8.942;2023-06-22T01:10:24;18.80;99.90
69031;DHT22;56083;48.774;8.942;2023-06-22T01:12:55;18.80;99.90
69031;DHT22;56083;48.774;8.942;2023-06-22T01:15:29;18.70;99.90
69031;DHT22;56083;48.774;8.942;2023-06-22T01:17:57;18.70;99.90
69031;DHT22;56083;48.774;8.942;2023-06-22T01:20:25;18.60;99.90
69031;DHT22;56083;48.774;8.942;2023-06-22T01:25:26;18.50;99.90
69031;DHT22;56083;48.774;8.942;2023-06-22T01:28:03;18.40;99.90
69031;DHT22;56083;48.774;8.942;2023-06-22T01:30:31;18.40;99.90
69031;DHT22;56083;48.774;8.942;2023-06-22T01:33:01;18.30;99.90
69031;DHT22;56083;48.774;8.942;2023-06-22T01:35:28;18.20;99.90
69031;DHT22;56083;48.774;8.942;2023-06-22T01:37:55;18.20;99.90
69031;DHT22;56083;48.774;8.942;2023-06-22T01:40:21;18.20;99.90
69031;DHT22;56083;48.774;8.942;2023-06-22T01:42:48;18.10;99.90
69031;DHT22;56083;48.774;8.942;2023-06-22T01:45:15;18.10;99.90
69031;DHT22;56083;48.774;8.942;2023-06-22T01:47:42;18.00;99.90
69031;DHT22;56083;48.774;8.942;2023-06-22T01:50:08;18.00;99.90
69031;DHT22;56083;48.774;8.942;2023-06-22T01:52:34;18.00;99.90
69031;DHT22;56083;48.774;8.942;2023-06-22T01:55:00;18.00;99.90
69031;DHT22;56083;48.774;8.942;2023-06-22T01:57:27;18.00;99.90
69031;DHT22;56083;48.774;8.942;2023-06-22T02:00:04;17.90;99.90
69031;DHT22;56083;48.774;8.942;2023-06-22T02:02:39;17.80;99.90
69031;DHT22;56083;48.774;8.942;2023-06-22T02:05:09;17.80;99.90
69031;DHT22;56083;48.774;8.942;2023-06-22T02:07:46;17.80;99.90
69031;DHT22;56083;48.774;8.942;2023-06-22T02:10:14;17.70;99.90
69031;DHT22;56083;48.774;8.942;2023-06-22T02:12:43;17.60;99.90
69031;DHT22;56083;48.774;8.942;2023-06-22T02:15:10;17.60;99.90
69031;DHT22;56083;48.774;8.942;2023-06-22T02:17:38;17.60;99.90
69031;DHT22;56083;48.774;8.942;2023-06-22T02:20:04;17.70;99.90
69031;DHT22;56083;48.774;8.942;2023-06-22T02:22:34;17.60;99.90
69031;DHT22;56083;48.774;8.942;2023-06-22T02:25:00;17.60;99.90
69031;DHT22;56083;48.774;8.942;2023-06-22T02:27:25;17.60;99.90
69031;DHT22;56083;48.774;8.942;2023-06-22T02:29:51;17.60;99.90
69031;DHT22;56083;48.774;8.942;2023-06-22T02:32:17;17.60;99.90
69031;DHT22;56083;48.774;8.942;2023-06-22T02:34:43;17.60;99.90
69031;DHT22;56083;48.774;8.942;2023-06-22T02:37:13;17.50;99.90
69031;DHT22;56083;48.774;8.942;2023-06-22T02:39:40;17.50;99.90
69031;DHT22;56083;48.774;8.942;2023-06-22T02:42:07;17.50;99.90
69031;DHT22;56083;48.774;8.942;2023-06-22T02:44:32;17.50;99.90
69031;DHT22;56083;48.774;8.942;2023-06-22T02:46:58;17.40;99.90
69031;DHT22;56083;48.774;8.942;2023-06-22T02:49:24;17.40;99.90
69031;DHT22;56083;48.774;8.942;2023-06-22T02:51:49;17.30;99.90
69031;DHT22;56083;48.774;8.942;2023-06-22T02:54:15;17.30;99.90
69031;DHT22;56083;48.774;8.942;2023-06-22T02:56:42;17.30;99.90
69031;DHT22;56083;48.774;8.942;2023-06-22T02:59:11;17.30;99.90
69031;DHT22;56083;48.774;8.942;2023-06-22T03:01:37;17.20;99.90
69031;DHT22;56083;48.774;8.942;2023-06-22T03:04:06;17.20;99.90
69031;DHT22;56083;48.774;8.942;2023-06-22T03:06:33;17.20;99.90
69031;DHT22;56083;48.774;8.942;2023-06-22T03:09:05;17.10;99.90
69031;DHT22;56083;48.774;8.942;2023-06-22T03:11:31;17.10;99.90
69031;DHT22;56083;48.774;8.942;2023-06-22T03:14:00;17.10;99.90
69031;DHT22;56083;48.774;8.942;2023-06-22T03:16:26;17.10;99.90
69031;DHT22;56083;48.774;8.942;2023-06-22T03:18:52;17.10;99.90
69031;DHT22;56083;48.774;8.942;2023-06-22T03:21:22;17.10;99.90
69031;DHT22;56083;48.774;8.942;2023-06-22T03:23:48;17.10;99.90
69031;DHT22;56083;48.774;8.942;2023-06-22T03:26:17;17.10;99.90
69031;DHT22;56083;48.774;8.942;2023-06-22T03:28:43;17.10;99.90
69031;DHT22;56083;48.774;8.942;2023-06-22T03:31:09;17.10;99.90
69031;DHT22;56083;48.774;8.942;2023-06-22T03:33:34;17.10;99.90
69031;DHT22;56083;48.774;8.942;2023-06-22T03:36:00;17.10;99.90
69031;DHT22;56083;48.774;8.942;2023-06-22T03:38:26;17.10;99.90
69031;DHT22;56083;48.774;8.942;2023-06-22T03:40:52;17.10;99.90
69031;DHT22;56083;48.774;8.942;2023-06-22T03:43:17;17.10;99.90
69031;DHT22;56083;48.774;8.942;2023-06-22T03:45:43;17.20;99.90
69031;DHT22;56083;48.774;8.942;2023-06-22T03:48:11;17.20;99.90
69031;DHT22;56083;48.774;8.942;2023-06-22T03:50:37;17.20;99.90
69031;DHT22;56083;48.774;8.942;2023-06-22T03:53:02;17.20;99.90
69031;DHT22;56083;48.774;8.942;2023-06-22T03:55:28;17.20;99.90
69031;DHT22;56083;48.774;8.942;2023-06-22T03:57:54;17.30;99.90
69031;DHT22;56083;48.774;8.942;2023-06-22T04:00:22;17.30;99.90
69031;DHT22;56083;48.774;8.942;2023-06-22T04:02:48;17.30;99.90
69031;DHT22;56083;48.774;8.942;2023-06-22T04:05:14;17.30;99.90
69031;DHT22;56083;48.774;8.942;2023-06-22T04:07:40;17.40;99.90
69031;DHT22;56083;48.774;8.942;2023-06-22T04:10:06;17.40;99.90
69031;DHT22;56083;48.774;8.942;2023-06-22T04:12:32;17.40;99.90
69031;DHT22;56083;48.774;8.942;2023-06-22T04:14:57;17.50;99.90
69031;DHT22;56083;48.774;8.942;2023-06-22T04:17:23;17.60;99.90
69031;DHT22;56083;48.774;8.942;2023-06-22T04:19:50;17.60;99.90
69031;DHT22;56083;48.774;8.942;2023-06-22T04:22:16;17.70;99.90
69031;DHT22;56083;48.774;8.942;2023-06-22T04:24:42;17.70;99.90
69031;DHT22;56083;48.774;8.942;2023-06-22T04:27:07;17.90;99.90
69031;DHT22;56083;48.774;8.942;2023-06-22T04:29:33;17.90;99.90
69031;DHT22;56083;48.774;8.942;2023-06-22T04:31:58;18.00;99.90
69031;DHT22;56083;48.774;8.942;2023-06-22T04:34:28;18.10;99.90
69031;DHT22;56083;48.774;8.942;2023-06-22T04:36:54;18.10;99.90
69031;DHT22;56083;48.774;8.942;2023-06-22T04:39:20;18.20;99.90
69031;DHT22;56083;48.774;8.942;2023-06-22T04:41:46;18.30;99.90
69031;DHT22;56083;48.774;8.942;2023-06-22T04:44:19;18.40;99.90
69031;DHT22;56083;48.774;8.942;2023-06-22T04:46:51;18.50;99.90
69031;DHT22;56083;48.774;8.942;2023-06-22T04:49:25;18.60;99.90
69031;DHT22;56083;48.774;8.942;2023-06-22T04:51:59;18.80;99.90
69031;DHT22;56083;48.774;8.942;2023-06-22T04:54:25;18.90;99.90
69031;DHT22;56083;48.774;8.942;2023-06-22T04:56:51;19.00;99.90
69031;DHT22;56083;48.774;8.942;2023-06-22T04:59:27;19.10;99.90
69031;DHT22;56083;48.774;8.942;2023-06-22T05:02:00;19.30;99.90
69031;DHT22;56083;48.774;8.942;2023-06-22T05:04:28;19.40;99.90
69031;DHT22;56083;48.774;8.942;2023-06-22T05:06:56;19.50;99.90
69031;DHT22;56083;48.774;8.942;2023-06-22T05:09:22;19.50;99.90
69031;DHT22;56083;48.774;8.942;2023-06-22T05:11:49;19.70;99.90
69031;DHT22;56083;48.774;8.942;2023-06-22T05:14:14;19.90;99.90
69031;DHT22;56083;48.774;8.942;2023-06-22T05:16:42;20.00;99.90
69031;DHT22;56083;48.774;8.942;2023-06-22T05:19:08;20.20;99.90
69031;DHT22;56083;48.774;8.942;2023-06-22T05:21:34;20.30;99.90
69031;DHT22;56083;48.774;8.942;2023-06-22T05:23:59;20.40;99.90
69031;DHT22;56083;48.774;8.942;2023-06-22T05:26:28;20.50;99.90
69031;DHT22;56083;48.774;8.942;2023-06-22T05:28:54;20.60;99.90
69031;DHT22;56083;48.774;8.942;2023-06-22T05:31:19;20.80;99.90
69031;DHT22;56083;48.774;8.942;2023-06-22T05:33:46;20.80;99.90
69031;DHT22;56083;48.774;8.942;2023-06-22T05:36:13;20.90;99.90
69031;DHT22;56083;48.774;8.942;2023-06-22T05:38:40;21.00;99.90
69031;DHT22;56083;48.774;8.942;2023-06-22T05:41:06;21.10;99.90
69031;DHT22;56083;48.774;8.942;2023-06-22T05:43:32;21.00;99.90
69031;DHT22;56083;48.774;8.942;2023-06-22T05:46:00;21.00;99.90
69031;DHT22;56083;48.774;8.942;2023-06-22T05:48:27;21.10;99.90
69031;DHT22;56083;48.774;8.942;2023-06-22T05:50:54;21.10;99.90
69031;DHT22;56083;48.774;8.942;2023-06-22T05:53:20;21.20;99.90
69031;DHT22;56083;48.774;8.942;2023-06-22T05:55:46;21.30;99.90
69031;DHT22;56083;48.774;8.942;2023-06-22T05:58:12;21.50;99.90
69031;DHT22;56083;48.774;8.942;2023-06-22T06:00:39;21.60;99.90
69031;DHT22;56083;48.774;8.942;2023-06-22T06:03:06;21.70;99.90
69031;DHT22;56083;48.774;8.942;2023-06-22T06:05:33;21.80;99.90
69031;DHT22;56083;48.774;8.942;2023-06-22T06:08:04;21.90;99.90
69031;DHT22;56083;48.774;8.942;2023-06-22T06:10:33;22.00;99.90
69031;DHT22;56083;48.774;8.942;2023-06-22T06:12:59;22.10;99.90
69031;DHT22;56083;48.774;8.942;2023-06-22T06:15:28;22.40;99.90
69031;DHT22;56083;48.774;8.942;2023-06-22T06:17:53;22.80;99.90
69031;DHT22;56083;48.774;8.942;2023-06-22T06:20:21;23.00;99.90
69031;DHT22;56083;48.774;8.942;2023-06-22T06:22:47;23.10;99.90
69031;DHT22;56083;48.774;8.942;2023-06-22T06:25:13;23.40;99.90
69031;DHT22;56083;48.774;8.942;2023-06-22T06:27:42;23.60;99.90
69031;DHT22;56083;48.774;8.942;2023-06-22T06:30:12;23.80;99.90
69031;DHT22;56083;48.774;8.942;2023-06-22T06:32:39;23.90;99.90
69031;DHT22;56083;48.774;8.942;2023-06-22T06:35:07;24.10;99.90
69031;DHT22;56083;48.774;8.942;2023-06-22T06:37:36;24.30;99.90
69031;DHT22;56083;48.774;8.942;2023-06-22T06:40:08;24.60;99.90
69031;DHT22;56083;48.774;8.942;2023-06-22T06:42:42;24.70;99.90
69031;DHT22;56083;48.774;8.942;2023-06-22T06:45:19;24.80;99.90
69031;DHT22;56083;48.774;8.942;2023-06-22T06:47:45;24.70;99.90
69031;DHT22;56083;48.774;8.942;2023-06-22T06:50:15;24.80;99.90
69031;DHT22;56083;48.774;8.942;2023-06-22T06:52:40;24.60;99.90
69031;DHT22;56083;48.774;8.942;2023-06-22T06:55:08;24.50;99.90
69031;DHT22;56083;48.774;8.942;2023-06-22T06:57:37;24.80;99.90
69031;DHT22;56083;48.774;8.942;2023-06-22T07:00:06;25.00;99.90
69031;DHT22;56083;48.774;8.942;2023-06-22T07:02:35;25.30;99.90
69031;DHT22;56083;48.774;8.942;2023-06-22T07:05:01;25.30;99.90
69031;DHT22;56083;48.774;8.942;2023-06-22T07:07:29;25.40;99.90
69031;DHT22;56083;48.774;8.942;2023-06-22T07:09:55;25.40;99.90
69031;DHT22;56083;48.774;8.942;2023-06-22T07:12:21;25.70;99.90
69031;DHT22;56083;48.774;8.942;2023-06-22T07:14:46;25.80;99.90
69031;DHT22;56083;48.774;8.942;2023-06-22T07:17:12;26.00;99.90
69031;DHT22;56083;48.774;8.942;2023-06-22T07:19:38;26.10;99.90
69031;DHT22;56083;48.774;8.942;2023-06-22T07:22:04;26.30;99.90
69031;DHT22;56083;48.774;8.942;2023-06-22T07:24:30;26.50;99.90
69031;DHT22;56083;48.774;8.942;2023-06-22T07:26:56;26.40;99.90
69031;DHT22;56083;48.774;8.942;2023-06-22T07:29:23;26.70;99.90
69031;DHT22;56083;48.774;8.942;2023-06-22T07:31:50;27.00;99.90
69031;DHT22;56083;48.774;8.942;2023-06-22T07:34:17;27.00;99.90
69031;DHT22;56083;48.774;8.942;2023-06-22T07:36:43;27.10;99.90
69031;DHT22;56083;48.774;8.942;2023-06-22T07:39:09;27.30;99.90
69031;DHT22;56083;48.774;8.942;2023-06-22T07:41:35;27.60;99.90
69031;DHT22;56083;48.774;8.942;2023-06-22T07:44:02;28.00;99.90
69031;DHT22;56083;48.774;8.942;2023-06-22T07:46:29;28.10;99.90
69031;DHT22;56083;48.774;8.942;2023-06-22T07:48:56;28.20;99.90
69031;DHT22;56083;48.774;8.942;2023-06-22T07:51:22;28.30;99.90
69031;DHT22;56083;48.774;8.942;2023-06-22T07:53:48;28.60;99.90
69031;DHT22;56083;48.774;8.942;2023-06-22T07:56:14;28.90;99.90
69031;DHT22;56083;48.774;8.942;2023-06-22T07:58:45;29.30;99.90
69031;DHT22;56083;48.774;8.942;2023-06-22T08:01:11;29.60;99.90
69031;DHT22;56083;48.774;8.942;2023-06-22T08:03:37;30.20;99.90
69031;DHT22;56083;48.774;8.942;2023-06-22T08:06:03;30.60;99.90
69031;DHT22;56083;48.774;8.942;2023-06-22T08:08:29;30.30;99.90
69031;DHT22;56083;48.774;8.942;2023-06-22T08:10:54;30.70;99.90
69031;DHT22;56083;48.774;8.942;2023-06-22T08:13:20;31.20;99.90
69031;DHT22;56083;48.774;8.942;2023-06-22T08:15:46;31.60;99.90
69031;DHT22;56083;48.774;8.942;2023-06-22T08:18:11;31.30;99.90
69031;DHT22;56083;48.774;8.942;2023-06-22T08:20:37;31.00;99.90
69031;DHT22;56083;48.774;8.942;2023-06-22T08:23:03;30.40;99.90
69031;DHT22;56083;48.774;8.942;2023-06-22T08:25:34;30.00;99.90
69031;DHT22;56083;48.774;8.942;2023-06-22T08:28:01;29.20;99.90
69031;DHT22;56083;48.774;8.942;2023-06-22T08:30:27;28.60;99.90
69031;DHT22;56083;48.774;8.942;2023-06-22T08:32:53;28.20;99.90
69031;DHT22;56083;48.774;8.942;2023-06-22T08:35:22;27.80;99.90
69031;DHT22;56083;48.774;8.942;2023-06-22T08:37:48;27.70;99.90
69031;DHT22;56083;48.774;8.942;2023-06-22T08:40:18;27.50;99.90
69031;DHT22;56083;48.774;8.942;2023-06-22T08:42:46;27.70;99.90
69031;DHT22;56083;48.774;8.942;2023-06-22T08:45:12;27.90;99.90
69031;DHT22;56083;48.774;8.942;2023-06-22T08:47:38;28.30;99.90
69031;DHT22;56083;48.774;8.942;2023-06-22T08:50:05;28.70;99.90
69031;DHT22;56083;48.774;8.942;2023-06-22T08:52:32;28.80;99.90
69031;DHT22;56083;48.774;8.942;2023-06-22T08:54:57;29.10;99.90
69031;DHT22;56083;48.774;8.942;2023-06-22T08:57:29;29.10;99.90
69031;DHT22;56083;48.774;8.942;2023-06-22T08:59:56;28.60;99.90
69031;DHT22;56083;48.774;8.942;2023-06-22T09:02:24;28.70;99.90
69031;DHT22;56083;48.774;8.942;2023-06-22T09:04:50;28.90;99.90
69031;DHT22;56083;48.774;8.942;2023-06-22T09:07:22;30.20;99.90
69031;DHT22;56083;48.774;8.942;2023-06-22T09:09:49;31.30;99.90
69031;DHT22;56083;48.774;8.942;2023-06-22T09:12:14;31.70;99.90
69031;DHT22;56083;48.774;8.942;2023-06-22T09:14:40;31.60;99.90
69031;DHT22;56083;48.774;8.942;2023-06-22T09:17:06;31.90;99.90
69031;DHT22;56083;48.774;8.942;2023-06-22T09:19:31;31.90;99.90
69031;DHT22;56083;48.774;8.942;2023-06-22T09:21:57;32.00;99.90
69031;DHT22;56083;48.774;8.942;2023-06-22T09:24:23;31.90;99.90
69031;DHT22;56083;48.774;8.942;2023-06-22T09:26:48;32.50;99.90
69031;DHT22;56083;48.774;8.942;2023-06-22T09:29:14;33.60;99.90
69031;DHT22;56083;48.774;8.942;2023-06-22T09:31:40;34.50;99.90
69031;DHT22;56083;48.774;8.942;2023-06-22T09:34:06;35.00;99.90
69031;DHT22;56083;48.774;8.942;2023-06-22T09:36:33;35.30;99.90
69031;DHT22;56083;48.774;8.942;2023-06-22T09:38:58;35.50;99.90
69031;DHT22;56083;48.774;8.942;2023-06-22T09:41:24;35.60;99.90
69031;DHT22;56083;48.774;8.942;2023-06-22T09:43:50;34.90;99.90
69031;DHT22;56083;48.774;8.942;2023-06-22T09:46:16;34.40;99.90
69031;DHT22;56083;48.774;8.942;2023-06-22T09:48:42;33.90;99.90
69031;DHT22;56083;48.774;8.942;2023-06-22T09:51:08;33.50;99.90
69031;DHT22;56083;48.774;8.942;2023-06-22T09:53:33;33.90;99.90
69031;DHT22;56083;48.774;8.942;2023-06-22T09:56:00;35.00;99.90
69031;DHT22;56083;48.774;8.942;2023-06-22T09:58:27;36.50;99.30
69031;DHT22;56083;48.774;8.942;2023-06-22T10:00:53;37.30;97.30
69031;DHT22;56083;48.774;8.942;2023-06-22T10:03:20;36.60;95.60
69031;DHT22;56083;48.774;8.942;2023-06-22T10:05:45;35.80;95.20
69031;DHT22;56083;48.774;8.942;2023-06-22T10:08:11;35.00;96.50
69031;DHT22;56083;48.774;8.942;2023-06-22T10:10:38;34.30;97.40
69031;DHT22;56083;48.774;8.942;2023-06-22T10:13:10;34.00;99.10
69031;DHT22;56083;48.774;8.942;2023-06-22T10:15:40;34.40;98.60
69031;DHT22;56083;48.774;8.942;2023-06-22T10:18:06;34.70;97.10
69031;DHT22;56083;48.774;8.942;2023-06-22T10:20:31;35.10;96.50
69031;DHT22;56083;48.774;8.942;2023-06-22T10:22:57;35.00;95.50
69031;DHT22;56083;48.774;8.942;2023-06-22T10:25:22;35.70;95.80
69031;DHT22;56083;48.774;8.942;2023-06-22T10:27:48;36.30;94.10
69031;DHT22;56083;48.774;8.942;2023-06-22T10:30:14;37.00;92.20
69031;DHT22;56083;48.774;8.942;2023-06-22T10:32:41;37.30;91.60
69031;DHT22;56083;48.774;8.942;2023-06-22T10:35:08;37.70;91.90
69031;DHT22;56083;48.774;8.942;2023-06-22T10:37:36;39.00;90.10
69031;DHT22;56083;48.774;8.942;2023-06-22T10:40:03;40.10;85.50
69031;DHT22;56083;48.774;8.942;2023-06-22T10:42:29;40.20;82.10
69031;DHT22;56083;48.774;8.942;2023-06-22T10:44:55;40.70;78.40
69031;DHT22;56083;48.774;8.942;2023-06-22T10:47:20;40.30;78.70
69031;DHT22;56083;48.774;8.942;2023-06-22T10:49:46;40.20;80.80
69031;DHT22;56083;48.774;8.942;2023-06-22T10:52:12;40.10;80.10
69031;DHT22;56083;48.774;8.942;2023-06-22T10:54:38;40.00;79.20
69031;DHT22;56083;48.774;8.942;2023-06-22T10:57:05;40.10;78.50
69031;DHT22;56083;48.774;8.942;2023-06-22T10:59:30;40.20;79.00
69031;DHT22;56083;48.774;8.942;2023-06-22T11:01:56;40.10;76.90
69031;DHT22;56083;48.774;8.942;2023-06-22T11:04:23;40.30;77.50
69031;DHT22;56083;48.774;8.942;2023-06-22T11:06:49;39.90;74.90
69031;DHT22;56083;48.774;8.942;2023-06-22T11:09:15;39.60;77.50
69031;DHT22;56083;48.774;8.942;2023-06-22T11:11:50;40.00;78.40
69031;DHT22;56083;48.774;8.942;2023-06-22T11:14:16;39.30;75.60
69031;DHT22;56083;48.774;8.942;2023-06-22T11:16:41;38.90;75.00
69031;DHT22;56083;48.774;8.942;2023-06-22T11:19:07;38.10;75.20
69031;DHT22;56083;48.774;8.942;2023-06-22T11:21:33;37.10;77.30
69031;DHT22;56083;48.774;8.942;2023-06-22T11:23:59;36.80;80.00
69031;DHT22;56083;48.774;8.942;2023-06-22T11:26:25;35.90;80.20
69031;DHT22;56083;48.774;8.942;2023-06-22T11:28:53;35.10;83.00
69031;DHT22;56083;48.774;8.942;2023-06-22T11:31:18;35.00;87.00
69031;DHT22;56083;48.774;8.942;2023-06-22T11:33:44;35.10;85.90
69031;DHT22;56083;48.774;8.942;2023-06-22T11:36:11;35.40;86.10
69031;DHT22;56083;48.774;8.942;2023-06-22T11:38:37;35.60;85.70
69031;DHT22;56083;48.774;8.942;2023-06-22T11:41:08;35.90;84.20
69031;DHT22;56083;48.774;8.942;2023-06-22T11:43:34;35.80;83.30
69031;DHT22;56083;48.774;8.942;2023-06-22T11:46:03;35.30;84.20
69031;DHT22;56083;48.774;8.942;2023-06-22T11:48:29;34.40;87.10
69031;DHT22;56083;48.774;8.942;2023-06-22T11:50:55;33.50;90.00
69031;DHT22;56083;48.774;8.942;2023-06-22T11:53:23;32.80;90.60
69031;DHT22;56083;48.774;8.942;2023-06-22T11:55:49;32.30;92.10
69031;DHT22;56083;48.774;8.942;2023-06-22T11:58:15;32.20;92.50
69031;DHT22;56083;48.774;8.942;2023-06-22T12:00:41;32.10;93.50
69031;DHT22;56083;48.774;8.942;2023-06-22T12:03:07;31.80;94.40
69031;DHT22;56083;48.774;8.942;2023-06-22T12:05:33;31.70;94.00
69031;DHT22;56083;48.774;8.942;2023-06-22T12:07:58;31.70;94.60
69031;DHT22;56083;48.774;8.942;2023-06-22T12:10:25;31.50;94.10
69031;DHT22;56083;48.774;8.942;2023-06-22T12:12:51;31.70;94.70
69031;DHT22;56083;48.774;8.942;2023-06-22T12:15:17;31.90;95.00
69031;DHT22;56083;48.774;8.942;2023-06-22T12:17:43;32.00;94.50
69031;DHT22;56083;48.774;8.942;2023-06-22T12:20:09;32.20;93.10
69031;DHT22;56083;48.774;8.942;2023-06-22T12:22:35;32.20;93.10
69031;DHT22;56083;48.774;8.942;2023-06-22T12:25:01;32.10;94.10
69031;DHT22;56083;48.774;8.942;2023-06-22T12:27:27;32.00;93.60
69031;DHT22;56083;48.774;8.942;2023-06-22T12:29:52;31.70;94.30
69031;DHT22;56083;48.774;8.942;2023-06-22T12:32:18;31.80;95.10
69031;DHT22;56083;48.774;8.942;2023-06-22T12:34:44;31.90;95.00
69031;DHT22;56083;48.774;8.942;2023-06-22T12:37:10;32.10;94.10
69031;DHT22;56083;48.774;8.942;2023-06-22T12:39:36;32.50;94.60
69031;DHT22;56083;48.774;8.942;2023-06-22T12:42:01;32.60;93.50
69031;DHT22;56083;48.774;8.942;2023-06-22T12:44:27;32.70;93.20
69031;DHT22;56083;48.774;8.942;2023-06-22T12:46:53;32.70;94.10
69031;DHT22;56083;48.774;8.942;2023-06-22T12:49:19;32.60;94.10
69031;DHT22;56083;48.774;8.942;2023-06-22T12:51:45;32.40;93.50
69031;DHT22;56083;48.774;8.942;2023-06-22T12:54:11;32.20;93.90
69031;DHT22;56083;48.774;8.942;2023-06-22T12:56:38;31.80;94.10
69031;DHT22;56083;48.774;8.942;2023-06-22T12:59:04;31.60;94.60
69031;DHT22;56083;48.774;8.942;2023-06-22T13:01:33;31.30;95.90
69031;DHT22;56083;48.774;8.942;2023-06-22T13:04:00;31.00;96.50
69031;DHT22;56083;48.774;8.942;2023-06-22T13:06:27;30.70;96.60
69031;DHT22;56083;48.774;8.942;2023-06-22T13:08:53;30.50;97.50
69031;DHT22;56083;48.774;8.942;2023-06-22T13:11:18;30.40;98.20
69031;DHT22;56083;48.774;8.942;2023-06-22T13:13:45;30.40;99.10
69031;DHT22;56083;48.774;8.942;2023-06-22T13:16:10;30.40;99.90
69031;DHT22;56083;48.774;8.942;2023-06-22T13:18:36;30.30;99.90
69031;DHT22;56083;48.774;8.942;2023-06-22T13:21:02;30.10;99.90
69031;DHT22;56083;48.774;8.942;2023-06-22T13:23:28;30.00;99.90
69031;DHT22;56083;48.774;8.942;2023-06-22T13:25:54;30.10;99.90
69031;DHT22;56083;48.774;8.942;2023-06-22T13:28:19;30.40;99.90
69031;DHT22;56083;48.774;8.942;2023-06-22T13:30:46;30.60;99.90
69031;DHT22;56083;48.774;8.942;2023-06-22T13:33:13;30.90;99.90
69031;DHT22;56083;48.774;8.942;2023-06-22T13:35:39;31.10;99.90
69031;DHT22;56083;48.774;8.942;2023-06-22T13:38:08;31.40;99.20
69031;DHT22;56083;48.774;8.942;2023-06-22T13:40:34;31.70;99.20
69031;DHT22;56083;48.774;8.942;2023-06-22T13:42:59;32.10;98.00
69031;DHT22;56083;48.774;8.942;2023-06-22T13:45:26;32.10;98.00
69031;DHT22;56083;48.774;8.942;2023-06-22T13:47:52;32.00;97.10
69031;DHT22;56083;48.774;8.942;2023-06-22T13:50:17;32.10;96.90
69031;DHT22;56083;48.774;8.942;2023-06-22T13:52:43;32.00;97.00
69031;DHT22;56083;48.774;8.942;2023-06-22T13:55:09;31.80;96.20
69031;DHT22;56083;48.774;8.942;2023-06-22T13:57:35;31.80;96.70
69031;DHT22;56083;48.774;8.942;2023-06-22T14:00:02;31.80;97.00
69031;DHT22;56083;48.774;8.942;2023-06-22T14:02:29;31.80;96.20
69031;DHT22;56083;48.774;8.942;2023-06-22T14:04:55;31.90;96.30
69031;DHT22;56083;48.774;8.942;2023-06-22T14:07:20;31.90;96.40
69031;DHT22;56083;48.774;8.942;2023-06-22T14:09:46;32.10;96.50
69031;DHT22;56083;48.774;8.942;2023-06-22T14:12:12;32.30;96.00
69031;DHT22;56083;48.774;8.942;2023-06-22T14:14:38;32.90;95.20
69031;DHT22;56083;48.774;8.942;2023-06-22T14:17:05;33.40;94.70
69031;DHT22;56083;48.774;8.942;2023-06-22T14:19:30;33.50;93.50
69031;DHT22;56083;48.774;8.942;2023-06-22T14:21:56;33.70;92.10
69031;DHT22;56083;48.774;8.942;2023-06-22T14:24:22;33.80;92.90
69031;DHT22;56083;48.774;8.942;2023-06-22T14:26:48;34.40;92.10
69031;DHT22;56083;48.774;8.942;2023-06-22T14:29:14;35.00;79.90
69031;DHT22;56083;48.774;8.942;2023-06-22T14:31:40;35.60;74.40
69031;DHT22;56083;48.774;8.942;2023-06-22T14:34:05;35.30;73.50
69031;DHT22;56083;48.774;8.942;2023-06-22T14:36:31;34.80;71.40
69031;DHT22;56083;48.774;8.942;2023-06-22T14:38:57;34.10;69.40
69031;DHT22;56083;48.774;8.942;2023-06-22T14:41:23;33.50;70.10
69031;DHT22;56083;48.774;8.942;2023-06-22T14:43:49;33.10;72.20
69031;DHT22;56083;48.774;8.942;2023-06-22T14:46:17;33.00;72.30
69031;DHT22;56083;48.774;8.942;2023-06-22T14:48:43;33.40;72.40
69031;DHT22;56083;48.774;8.942;2023-06-22T14:51:10;33.90;70.40
69031;DHT22;56083;48.774;8.942;2023-06-22T14:53:36;33.90;69.90
69031;DHT22;56083;48.774;8.942;2023-06-22T14:56:02;34.20;69.90
69031;DHT22;56083;48.774;8.942;2023-06-22T14:58:31;35.00;67.30
69031;DHT22;56083;48.774;8.942;2023-06-22T15:01:02;35.70;66.40
69031;DHT22;56083;48.774;8.942;2023-06-22T15:03:29;35.60;63.60
69031;DHT22;56083;48.774;8.942;2023-06-22T15:05:56;35.50;62.30
69031;DHT22;56083;48.774;8.942;2023-06-22T15:08:22;36.10;61.20
69031;DHT22;56083;48.774;8.942;2023-06-22T15:10:47;36.10;61.00
69031;DHT22;56083;48.774;8.942;2023-06-22T15:13:14;35.90;62.00
69031;DHT22;56083;48.774;8.942;2023-06-22T15:15:39;35.80;61.30
69031;DHT22;56083;48.774;8.942;2023-06-22T15:18:05;35.40;60.90
69031;DHT22;56083;48.774;8.942;2023-06-22T15:20:31;34.80;62.50
69031;DHT22;56083;48.774;8.942;2023-06-22T15:22:58;34.00;63.70
69031;DHT22;56083;48.774;8.942;2023-06-22T15:25:24;33.70;65.00
69031;DHT22;56083;48.774;8.942;2023-06-22T15:27:49;33.50;66.00
69031;DHT22;56083;48.774;8.942;2023-06-22T15:30:15;33.40;66.60